Time;durP1;ratioP1;P1;durP2;ratioP2;P2;SDS_P1;SDS_P2;PMS_P1;PMS_P2;Temp;Humidity;BMP_temperature;BMP_pressure;BME280_temperature;BME280_humidity;BME280_pressure;Samples;Min_cycle;Max_cycle;Signal;HPM_P1;HPM_P2
2022/05/26 00:01:21;;;;;;;11.25;5.30;;;22.10;75.20;;;;;;4983273;28;20192;-77
2022/05/26 00:03:50;;;;;;;7.13;5.22;;;22.10;75.30;;;;;;4992207;28;20205;-78
2022/05/26 00:06:23;;;;;;;9.57;5.90;;;22.10;75.30;;;;;;4998061;28;20204;-77
2022/05/26 00:08:52;;;;;;;9.00;5.50;;;22.00;75.50;;;;;;4996188;28;20219;-78
2022/05/26 00:11:22;;;;;;;8.23;5.35;;;22.00;75.60;;;;;;4980678;28;20204;-77
2022/05/26 00:13:52;;;;;;;10.50;5.18;;;22.00;75.60;;;;;;4982563;28;20193;-75
2022/05/26 00:16:20;;;;;;;13.68;6.28;;;22.00;75.60;;;;;;4979581;28;20201;-77
2022/05/26 00:18:49;;;;;;;6.78;4.93;;;22.00;75.70;;;;;;4985299;28;20714;-78
2022/05/26 00:21:21;;;;;;;7.67;4.77;;;21.90;75.90;;;;;;4982912;28;20204;-78
2022/05/26 00:23:55;;;;;;;15.30;5.87;;;21.90;76.20;;;;;;4985527;28;20200;-78
2022/05/26 00:26:24;;;;;;;6.78;5.05;;;21.90;76.20;;;;;;4980318;28;20197;-78
2022/05/26 00:28:54;;;;;;;10.47;5.43;;;21.80;76.20;;;;;;4990498;28;20725;-77
2022/05/26 00:31:22;;;;;;;10.77;5.30;;;21.80;76.30;;;;;;4979047;28;20252;-79
2022/05/26 00:33:51;;;;;;;7.67;5.50;;;21.80;76.30;;;;;;4988807;28;20216;-77
2022/05/26 00:36:37;;;;;;;7.17;5.17;;;21.80;76.20;;;;;;4991135;28;20206;-77
2022/05/26 00:39:08;;;;;;;7.47;4.83;;;21.80;76.40;;;;;;4992483;28;20201;-78
2022/05/26 00:41:39;;;;;;;10.57;5.73;;;21.80;76.50;;;;;;4979074;28;20197;-78
2022/05/26 00:44:09;;;;;;;7.20;4.97;;;21.70;76.60;;;;;;4980014;28;20197;-77
2022/05/26 00:46:45;;;;;;;7.40;4.82;;;21.70;76.80;;;;;;4986179;28;20319;-77
2022/05/26 00:49:21;;;;;;;9.47;5.20;;;21.70;76.80;;;;;;4982166;28;20693;-77
2022/05/26 00:51:50;;;;;;;5.90;4.23;;;21.70;76.80;;;;;;4987228;28;20216;-76
2022/05/26 00:54:22;;;;;;;10.03;5.63;;;21.70;77.50;;;;;;4980778;28;20197;-77
2022/05/26 00:56:57;;;;;;;8.33;5.27;;;21.70;76.80;;;;;;4977414;28;20189;-77
2022/05/26 00:59:35;;;;;;;8.93;4.40;;;21.70;76.80;;;;;;4976825;28;20193;-78
2022/05/26 01:02:04;;;;;;;9.63;5.10;;;21.70;76.90;;;;;;4984952;28;20204;-77
2022/05/26 01:04:36;;;;;;;7.40;4.78;;;21.70;76.90;;;;;;4985562;28;20240;-77
2022/05/26 01:07:11;;;;;;;6.80;4.50;;;21.70;77.00;;;;;;4981470;28;20196;-78
2022/05/26 01:09:39;;;;;;;10.73;4.70;;;21.70;77.10;;;;;;4981293;28;20196;-79
2022/05/26 01:12:08;;;;;;;6.67;4.13;;;21.60;77.30;;;;;;4986291;28;20207;-80
2022/05/26 01:14:41;;;;;;;6.57;4.27;;;21.60;77.80;;;;;;4984011;28;20212;-78
2022/05/26 01:17:18;;;;;;;11.67;5.23;;;21.60;78.20;;;;;;4985620;28;20193;-78
2022/05/26 01:20:20;;;;;;;6.37;4.70;;;21.50;78.30;;;;;;4988637;28;20203;-78
2022/05/26 01:23:28;;;;;;;7.57;4.30;;;21.50;78.40;;;;;;4981825;28;20296;-78
2022/05/26 01:26:45;;;;;;;7.07;4.77;;;21.50;78.40;;;;;;4983826;28;20778;-77
2022/05/26 01:29:57;;;;;;;14.33;5.50;;;21.50;78.30;;;;;;4979605;28;20701;-77
2022/05/26 01:32:35;;;;;;;8.70;5.73;;;21.50;78.20;;;;;;4988481;28;20188;-77
2022/05/26 01:35:09;;;;;;;9.60;6.07;;;21.50;78.10;;;;;;4982174;28;20201;-78
2022/05/26 01:37:50;;;;;;;15.93;5.70;;;21.50;78.10;;;;;;4983038;28;20201;-77
2022/05/26 01:40:29;;;;;;;13.10;6.60;;;21.50;78.00;;;;;;4989622;28;20328;-79
2022/05/26 01:43:08;;;;;;;9.97;6.57;;;21.50;78.10;;;;;;4982594;28;20197;-78
2022/05/26 01:45:48;;;;;;;11.20;6.93;;;21.50;78.70;;;;;;4979649;28;20748;-80
2022/05/26 01:48:25;;;;;;;15.77;9.90;;;21.50;80.40;;;;;;4979017;28;20229;-77
2022/05/26 01:50:58;;;;;;;17.13;10.30;;;21.40;81.60;;;;;;4979308;28;20204;-79
2022/05/26 01:53:33;;;;;;;18.40;9.07;;;21.40;82.00;;;;;;4982035;28;20196;-79
2022/05/26 01:56:07;;;;;;;15.20;9.10;;;21.30;82.50;;;;;;4982512;28;20196;-78
2022/05/26 01:58:38;;;;;;;16.97;9.73;;;21.30;82.80;;;;;;4981143;28;20197;-78
2022/05/26 02:01:11;;;;;;;14.40;8.70;;;21.20;82.80;;;;;;4977012;28;20913;-78
2022/05/26 02:03:43;;;;;;;15.67;9.17;;;21.20;82.90;;;;;;4983841;28;20659;-79
2022/05/26 02:06:17;;;;;;;16.57;9.33;;;21.20;83.10;;;;;;4979872;28;20193;-79
2022/05/26 02:08:56;;;;;;;12.13;8.53;;;21.10;83.10;;;;;;4987107;28;20205;-80
2022/05/26 02:11:26;;;;;;;19.30;8.93;;;21.10;82.90;;;;;;4979850;28;20590;-79
2022/05/26 02:14:08;;;;;;;17.57;9.33;;;21.10;82.90;;;;;;4986662;28;20280;-79
2022/05/26 02:16:41;;;;;;;15.50;10.13;;;21.10;82.80;;;;;;4982734;28;20197;-79
2022/05/26 02:19:16;;;;;;;16.70;9.90;;;21.10;82.90;;;;;;4987378;28;20193;-79
2022/05/26 02:21:50;;;;;;;14.73;10.10;;;21.10;82.90;;;;;;4979578;28;20199;-79
2022/05/26 02:24:25;;;;;;;27.93;9.97;;;21.10;83.20;;;;;;4977010;28;20188;-78
2022/05/26 02:26:53;;;;;;;18.10;10.27;;;21.10;83.20;;;;;;4979458;28;20200;-79
2022/05/26 02:32:10;;;;;;;21.27;10.03;;;21.10;83.30;;;;;;4980056;28;20817;-78
2022/05/26 02:34:44;;;;;;;18.73;9.67;;;21.00;83.30;;;;;;4990938;28;20205;-79
2022/05/26 02:37:16;;;;;;;15.27;9.57;;;21.00;83.30;;;;;;4989015;28;20193;-79
2022/05/26 02:39:44;;;;;;;17.00;9.77;;;21.00;83.60;;;;;;4986793;28;20197;-79
2022/05/26 02:42:13;;;;;;;14.70;9.47;;;21.00;84.00;;;;;;4984761;28;20240;-79
2022/05/26 02:44:43;;;;;;;16.10;9.37;;;21.00;83.60;;;;;;4986583;28;20201;-79
2022/05/26 02:47:41;;;;;;;16.23;9.23;;;21.00;83.60;;;;;;4996556;28;20246;-79
2022/05/26 02:50:21;;;;;;;15.03;9.47;;;21.00;84.00;;;;;;4987650;28;20196;-79
2022/05/26 02:53:00;;;;;;;16.90;9.73;;;21.00;84.00;;;;;;4982153;28;20688;-80
2022/05/26 02:55:43;;;;;;;18.43;9.90;;;20.90;84.20;;;;;;4993827;28;20197;-80
2022/05/26 02:58:17;;;;;;;14.57;9.67;;;20.90;84.50;;;;;;4999587;28;20646;-80
2022/05/26 03:00:52;;;;;;;17.10;9.77;;;20.90;84.60;;;;;;4988027;28;20200;-77
2022/05/26 03:03:27;;;;;;;16.83;9.40;;;20.90;84.70;;;;;;4980867;28;20201;-80
2022/05/26 03:06:04;;;;;;;18.97;9.77;;;20.90;84.80;;;;;;4985774;28;20188;-80
2022/05/26 03:08:37;;;;;;;19.07;10.30;;;20.90;84.90;;;;;;4988209;28;20212;-79
2022/05/26 03:11:08;;;;;;;17.77;9.73;;;20.90;85.00;;;;;;4989136;28;20212;-79
2022/05/26 03:13:37;;;;;;;17.43;10.27;;;20.90;85.00;;;;;;4988522;28;20326;-79
2022/05/26 03:16:07;;;;;;;16.63;10.33;;;20.90;85.20;;;;;;4996550;28;20211;-80
2022/05/26 03:18:35;;;;;;;15.10;10.00;;;21.00;85.30;;;;;;4987010;28;20278;-80
2022/05/26 03:21:08;;;;;;;16.60;9.87;;;20.90;85.20;;;;;;4986256;28;20196;-80
2022/05/26 03:23:37;;;;;;;15.93;9.60;;;21.00;85.30;;;;;;4986521;28;20205;-80
2022/05/26 03:26:07;;;;;;;20.73;10.97;;;21.00;85.50;;;;;;4983412;28;20215;-79
2022/05/26 03:28:36;;;;;;;16.47;10.10;;;21.00;85.70;;;;;;4984957;28;20209;-79
2022/05/26 03:31:08;;;;;;;17.87;9.83;;;21.00;85.70;;;;;;4990849;28;20232;-80
2022/05/26 03:42:12;;;;;;;19.33;9.57;;;21.00;86.00;;;;;;4930935;29;20203;-79
2022/05/26 03:44:41;;;;;;;18.63;8.97;;;21.10;86.10;;;;;;4932276;29;20207;-80
2022/05/26 03:47:09;;;;;;;17.83;9.67;;;21.10;86.60;;;;;;4955858;28;20236;-80
2022/05/26 03:49:37;;;;;;;21.07;9.63;;;21.10;86.80;;;;;;4997389;28;20258;-80
2022/05/26 03:52:08;;;;;;;18.53;9.33;;;21.10;86.90;;;;;;4996052;28;20204;-80
2022/05/26 03:54:36;;;;;;;15.63;9.17;;;21.10;87.00;;;;;;4991032;28;20208;-80
2022/05/26 03:57:06;;;;;;;21.27;9.43;;;21.10;86.90;;;;;;4985611;28;20193;-80
2022/05/26 03:59:35;;;;;;;16.93;9.30;;;21.10;86.90;;;;;;4990806;28;20201;-80
2022/05/26 04:02:03;;;;;;;21.33;9.33;;;21.10;87.20;;;;;;4992873;28;20201;-79
2022/05/26 04:04:32;;;;;;;16.43;9.20;;;21.20;87.30;;;;;;4989915;28;20232;-79
2022/05/26 04:07:00;;;;;;;15.43;8.13;;;21.20;87.30;;;;;;4994050;28;20879;-79
2022/05/26 04:09:30;;;;;;;16.77;10.50;;;21.20;87.20;;;;;;5004962;28;20225;-80
2022/05/26 04:11:58;;;;;;;19.70;9.80;;;21.20;87.60;;;;;;4992001;28;20197;-80
2022/05/26 04:14:27;;;;;;;19.93;10.43;;;21.30;87.70;;;;;;4985131;28;20205;-80
2022/05/26 04:16:55;;;;;;;17.67;8.23;;;21.30;88.00;;;;;;4987448;28;20693;-80
2022/05/26 04:19:23;;;;;;;15.48;9.05;;;21.30;88.10;;;;;;4985924;28;20196;-81
2022/05/26 04:24:45;;;;;;;14.67;8.30;;;21.30;88.00;;;;;;4975865;28;20192;-81
2022/05/26 04:27:14;;;;;;;16.40;8.07;;;21.40;87.90;;;;;;4989417;28;20201;-79
2022/05/26 04:29:42;;;;;;;14.30;7.25;;;21.40;87.70;;;;;;4989028;28;20221;-78
2022/05/26 04:32:11;;;;;;;16.70;7.75;;;21.50;87.70;;;;;;4989745;28;20408;-78
2022/05/26 04:34:40;;;;;;;13.82;7.47;;;21.50;87.70;;;;;;4977186;28;20197;-79
2022/05/26 04:37:09;;;;;;;14.63;7.70;;;21.50;87.50;;;;;;4986764;28;20201;-79
2022/05/26 04:39:37;;;;;;;15.88;8.20;;;21.50;87.30;;;;;;4984212;28;20197;-80
2022/05/26 04:42:13;;;;;;;19.67;8.30;;;21.60;87.30;;;;;;4984952;28;20909;-79
2022/05/26 04:44:44;;;;;;;15.23;8.10;;;21.60;87.40;;;;;;4978658;28;20228;-80
2022/05/26 04:47:14;;;;;;;12.57;7.47;;;21.60;87.20;;;;;;4992612;28;20275;-80
2022/05/26 04:49:42;;;;;;;16.02;6.38;;;21.70;86.90;;;;;;4991850;28;20316;-78
2022/05/26 04:52:14;;;;;;;10.35;6.00;;;21.70;86.70;;;;;;4985178;28;20761;-80
2022/05/26 04:54:44;;;;;;;13.55;6.55;;;21.80;86.50;;;;;;4984105;28;20200;-77
2022/05/26 04:57:15;;;;;;;8.80;5.18;;;21.80;86.20;;;;;;4984147;28;20205;-80
2022/05/26 04:59:44;;;;;;;14.30;6.50;;;21.90;85.90;;;;;;4983216;28;20855;-79
2022/05/26 05:02:13;;;;;;;15.75;6.10;;;22.00;85.50;;;;;;4979700;28;20201;-78
2022/05/26 05:04:44;;;;;;;11.40;5.53;;;22.00;85.30;;;;;;4984278;28;20399;-82
2022/05/26 05:07:13;;;;;;;16.38;5.53;;;22.10;85.20;;;;;;4983483;28;20220;-84
2022/05/26 05:09:41;;;;;;;12.70;4.30;;;22.10;84.90;;;;;;4987215;28;20239;-81
2022/05/26 05:12:15;;;;;;;5.68;3.70;;;22.20;84.30;;;;;;4984304;28;20216;-79
2022/05/26 05:14:45;;;;;;;6.70;4.10;;;22.30;83.70;;;;;;4987974;28;20300;-80
2022/05/26 05:17:14;;;;;;;7.68;3.08;;;22.40;83.30;;;;;;4983521;28;20201;-81
2022/05/26 05:19:43;;;;;;;6.72;3.30;;;22.40;82.90;;;;;;4996366;28;20820;-81
2022/05/26 05:22:17;;;;;;;8.90;3.45;;;22.50;82.20;;;;;;4991535;28;20287;-81
2022/05/26 05:24:54;;;;;;;7.88;4.10;;;22.60;82.20;;;;;;4983000;28;20201;-83
2022/05/26 05:27:29;;;;;;;8.48;3.88;;;22.70;81.90;;;;;;4981667;28;20200;-81
2022/05/26 05:30:02;;;;;;;6.07;3.90;;;22.70;81.10;;;;;;4980444;28;20209;-81
2022/05/26 05:32:36;;;;;;;8.20;3.58;;;22.80;80.80;;;;;;4979888;28;20944;-81
2022/05/26 05:35:11;;;;;;;9.85;3.10;;;22.90;80.80;;;;;;4983886;28;20197;-80
2022/05/26 05:37:40;;;;;;;11.15;2.25;;;23.00;80.80;;;;;;4984601;28;20200;-80
2022/05/26 05:40:09;;;;;;;4.97;2.47;;;23.10;80.20;;;;;;4984974;28;20208;-81
2022/05/26 05:42:39;;;;;;;9.20;2.42;;;23.10;79.40;;;;;;4990967;28;20209;-81
2022/05/26 05:45:09;;;;;;;4.75;2.03;;;23.20;78.80;;;;;;4986354;28;20594;-81
2022/05/26 05:47:37;;;;;;;5.97;2.00;;;23.30;78.90;;;;;;4996814;28;20312;-82
2022/05/26 05:50:06;;;;;;;4.72;2.13;;;23.40;78.80;;;;;;4987777;28;20220;-81
2022/05/26 05:52:36;;;;;;;6.45;2.13;;;23.40;77.90;;;;;;4997246;28;20216;-81
2022/05/26 05:55:05;;;;;;;7.05;1.55;;;23.50;77.80;;;;;;4984994;28;20189;-82
2022/05/26 05:57:38;;;;;;;5.97;1.95;;;23.60;77.50;;;;;;4978436;28;20280;-79
2022/05/26 06:00:10;;;;;;;9.90;1.77;;;23.70;76.80;;;;;;4981138;28;20196;-81
2022/05/26 06:02:38;;;;;;;5.07;1.42;;;23.80;76.20;;;;;;4990113;28;20188;-79
2022/05/26 06:05:08;;;;;;;2.42;1.65;;;23.90;75.30;;;;;;4983780;28;20228;-80
2022/05/26 06:07:41;;;;;;;4.28;1.90;;;23.90;74.30;;;;;;4979369;28;20239;-79
2022/05/26 06:10:15;;;;;;;5.10;1.73;;;24.00;73.60;;;;;;4982135;28;20445;-79
2022/05/26 06:12:43;;;;;;;3.20;1.42;;;24.10;73.80;;;;;;4970297;28;20204;-77
2022/05/26 06:15:13;;;;;;;3.25;1.80;;;24.10;73.90;;;;;;4983496;28;20207;-79
2022/05/26 06:17:42;;;;;;;4.40;2.15;;;24.30;73.50;;;;;;4990741;28;20231;-80
2022/05/26 06:20:13;;;;;;;5.72;1.65;;;24.30;73.30;;;;;;4977533;28;20687;-77
2022/05/26 06:22:42;;;;;;;3.97;1.60;;;24.40;73.50;;;;;;4978761;28;20808;-78
2022/05/26 06:25:11;;;;;;;4.03;1.85;;;24.50;73.20;;;;;;4980368;28;20612;-78
2022/05/26 06:30:30;;;;;;;6.30;1.73;;;24.70;72.60;;;;;;4994207;28;20227;-77
2022/05/26 06:38:35;;;;;;;5.53;1.73;;;24.90;72.60;;;;;;4985501;28;20674;-79
2022/05/26 06:43:46;;;;;;;2.70;1.27;;;25.10;70.80;;;;;;4981722;28;20212;-79
2022/05/26 06:46:16;;;;;;;5.10;1.40;;;25.20;69.60;;;;;;4988243;28;20211;-80
2022/05/26 06:48:45;;;;;;;5.30;1.30;;;25.20;68.80;;;;;;4982495;28;20221;-77
2022/05/26 06:51:13;;;;;;;4.32;0.93;;;25.30;68.80;;;;;;4985752;28;20221;-78
2022/05/26 06:53:42;;;;;;;1.90;1.27;;;25.40;68.20;;;;;;4985461;28;20200;-79
2022/05/26 06:56:11;;;;;;;3.15;1.73;;;25.50;67.70;;;;;;4980950;28;20851;-77
2022/05/26 06:58:40;;;;;;;4.93;1.23;;;25.60;67.70;;;;;;4980052;28;20561;-79
2022/05/26 07:01:23;;;;;;;2.55;1.10;;;25.60;67.70;;;;;;4984330;28;20205;-81
2022/05/26 07:03:55;;;;;;;4.30;1.13;;;25.70;67.20;;;;;;4983492;28;20219;-80
2022/05/26 07:06:37;;;;;;;3.83;1.30;;;25.80;65.30;;;;;;4984701;28;20197;-79
2022/05/26 07:09:12;;;;;;;1.67;1.00;;;25.90;64.40;;;;;;4984236;28;20634;-80
2022/05/26 07:11:41;;;;;;;2.67;1.02;;;25.90;63.30;;;;;;4982578;28;20683;-78
2022/05/26 07:14:09;;;;;;;3.25;1.17;;;26.00;63.10;;;;;;4982699;28;20193;-79
2022/05/26 07:16:39;;;;;;;4.93;1.23;;;26.10;63.50;;;;;;4982381;28;20201;-78
2022/05/26 07:19:07;;;;;;;5.45;1.30;;;26.20;62.70;;;;;;4984221;28;20266;-76
2022/05/26 07:21:36;;;;;;;6.25;1.40;;;26.20;63.00;;;;;;4983769;28;20196;-77
2022/05/26 07:24:04;;;;;;;7.50;1.30;;;26.30;62.50;;;;;;4985406;28;20674;-79
2022/05/26 07:26:35;;;;;;;6.53;1.30;;;26.30;62.20;;;;;;4984131;28;20205;-82
2022/05/26 07:29:04;;;;;;;2.72;1.48;;;26.40;61.40;;;;;;4981248;28;20201;-81
2022/05/26 07:31:32;;;;;;;2.75;1.17;;;26.40;60.80;;;;;;4985801;28;20251;-79
2022/05/26 07:34:03;;;;;;;6.68;1.60;;;26.50;61.50;;;;;;4988255;28;20560;-80
2022/05/26 07:42:10;;;;;;;2.78;1.20;;;26.70;61.70;;;;;;4987637;28;20190;-82
2022/05/26 07:44:44;;;;;;;5.15;1.30;;;26.70;61.90;;;;;;4987648;28;20274;-81
2022/05/26 07:47:13;;;;;;;4.60;1.50;;;26.70;62.30;;;;;;4982805;28;20235;-80
2022/05/26 07:49:45;;;;;;;6.72;1.65;;;26.80;61.40;;;;;;4986523;28;20201;-79
2022/05/26 07:52:19;;;;;;;3.80;1.40;;;26.80;60.60;;;;;;4985412;28;20200;-79
2022/05/26 07:54:47;;;;;;;7.60;1.52;;;26.90;61.00;;;;;;4985075;28;20208;-80
2022/05/26 07:57:21;;;;;;;15.93;1.95;;;26.90;60.60;;;;;;4986690;28;20201;-81
2022/05/26 07:59:50;;;;;;;2.53;1.20;;;26.90;59.20;;;;;;4984680;28;20555;-79
2022/05/26 08:02:21;;;;;;;3.22;1.42;;;27.10;58.80;;;;;;4981867;28;20275;-77
2022/05/26 08:04:54;;;;;;;2.47;1.48;;;27.10;58.60;;;;;;4980671;28;20260;-80
2022/05/26 08:07:23;;;;;;;4.75;1.20;;;27.10;58.50;;;;;;4979154;28;20201;-79
2022/05/26 08:10:02;;;;;;;5.53;1.40;;;27.20;58.40;;;;;;4980498;28;20197;-78
2022/05/26 08:12:30;;;;;;;2.83;1.52;;;27.30;58.60;;;;;;4976302;28;20694;-82
2022/05/26 08:14:59;;;;;;;4.03;1.48;;;27.30;58.60;;;;;;4972825;28;20205;-77
2022/05/26 08:17:28;;;;;;;3.85;1.30;;;27.40;58.50;;;;;;4978664;28;20212;-75
2022/05/26 08:19:57;;;;;;;5.18;1.42;;;27.40;58.60;;;;;;4975158;28;20722;-80
2022/05/26 08:22:26;;;;;;;3.78;1.50;;;27.40;58.60;;;;;;4982949;28;20671;-81
2022/05/26 08:24:56;;;;;;;3.38;1.55;;;27.50;59.00;;;;;;4983124;28;21205;-79
2022/05/26 08:27:25;;;;;;;6.03;1.95;;;27.50;59.10;;;;;;4982449;28;20205;-79
2022/05/26 08:29:54;;;;;;;5.70;1.63;;;27.60;59.60;;;;;;4978401;28;20209;-77
2022/05/26 08:32:25;;;;;;;5.68;1.48;;;27.60;60.30;;;;;;4985476;28;20640;-78
2022/05/26 08:35:03;;;;;;;3.28;1.58;;;27.70;60.30;;;;;;4986616;28;20208;-80
2022/05/26 08:37:32;;;;;;;7.05;2.25;;;27.70;60.50;;;;;;4978953;28;20201;-79
2022/05/26 08:40:00;;;;;;;8.52;2.15;;;27.70;60.30;;;;;;4981461;28;20189;-79
2022/05/26 08:42:31;;;;;;;2.70;1.40;;;27.70;60.00;;;;;;4985246;28;20196;-78
2022/05/26 08:45:03;;;;;;;3.95;1.83;;;27.70;60.80;;;;;;4982740;28;20307;-77
2022/05/26 08:47:35;;;;;;;7.47;2.13;;;27.80;60.60;;;;;;4985640;28;20614;-79
2022/05/26 08:50:09;;;;;;;5.15;2.20;;;27.80;61.10;;;;;;4986045;28;20197;-75
2022/05/26 08:52:44;;;;;;;6.68;1.92;;;27.80;60.50;;;;;;4980049;28;20204;-80
2022/05/26 08:55:16;;;;;;;5.32;2.33;;;27.90;61.00;;;;;;4981693;28;20193;-78
2022/05/26 08:57:52;;;;;;;10.05;2.40;;;27.90;61.40;;;;;;4979578;28;20377;-79
2022/05/26 09:00:22;;;;;;;9.40;2.17;;;27.90;61.10;;;;;;4983297;28;20860;-78
2022/05/26 09:02:55;;;;;;;6.57;2.20;;;28.00;61.30;;;;;;4985492;28;20289;-78
2022/05/26 09:05:25;;;;;;;3.63;2.30;;;28.00;60.30;;;;;;4984580;28;20213;-79
2022/05/26 09:13:33;;;;;;;5.25;1.80;;;28.10;59.40;;;;;;4982003;28;20193;-77
2022/05/26 09:16:04;;;;;;;6.75;1.83;;;28.20;59.20;;;;;;4985840;28;20205;-83
2022/05/26 09:18:33;;;;;;;6.40;2.08;;;28.20;59.20;;;;;;4987610;28;20263;-78
2022/05/26 09:21:16;;;;;;;6.10;2.08;;;28.20;58.30;;;;;;4983715;28;20201;-78
2022/05/26 09:23:46;;;;;;;5.72;1.98;;;28.30;58.60;;;;;;4983170;28;20196;-78
2022/05/26 09:26:18;;;;;;;3.47;1.70;;;28.30;58.20;;;;;;4982405;28;20200;-77
2022/05/26 09:28:50;;;;;;;6.20;1.70;;;28.30;58.20;;;;;;4983451;28;20260;-79
2022/05/26 09:31:22;;;;;;;2.85;1.33;;;28.40;58.00;;;;;;4984829;28;20209;-78
2022/05/26 09:34:07;;;;;;;4.72;1.90;;;28.50;57.90;;;;;;4981245;28;20284;-77
2022/05/26 09:36:44;;;;;;;6.50;1.77;;;28.50;57.90;;;;;;4982977;28;20197;-76
2022/05/26 09:39:13;;;;;;;6.30;1.50;;;28.50;58.00;;;;;;4981228;28;20193;-79
2022/05/26 09:41:44;;;;;;;4.35;1.77;;;28.60;57.70;;;;;;4984454;28;20199;-79
2022/05/26 09:44:25;;;;;;;8.40;1.90;;;28.70;57.50;;;;;;4975234;28;20193;-79
2022/05/26 09:46:56;;;;;;;4.55;1.83;;;28.70;57.70;;;;;;4976582;28;20239;-79
2022/05/26 09:49:32;;;;;;;6.40;1.45;;;28.80;57.50;;;;;;4978180;28;20660;-76
2022/05/26 09:52:17;;;;;;;7.35;1.80;;;28.90;56.60;;;;;;4982397;28;20216;-78
2022/05/26 09:54:47;;;;;;;3.28;1.30;;;29.00;56.00;;;;;;4974773;28;20836;-76
2022/05/26 09:57:19;;;;;;;4.07;1.50;;;29.00;56.30;;;;;;4983170;28;20200;-79
2022/05/26 09:59:48;;;;;;;8.93;2.05;;;29.10;56.20;;;;;;4984023;28;20196;-77
2022/05/26 10:02:23;;;;;;;3.25;1.50;;;29.20;55.60;;;;;;4985460;28;20224;-78
2022/05/26 10:05:03;;;;;;;4.75;1.55;;;29.20;55.10;;;;;;4982480;28;20279;-78
2022/05/26 10:07:47;;;;;;;5.95;2.05;;;29.30;55.30;;;;;;4968909;28;20300;-77
2022/05/26 10:10:23;;;;;;;5.20;1.48;;;29.30;55.30;;;;;;4981713;28;20201;-78
2022/05/26 10:13:08;;;;;;;4.85;1.90;;;29.40;55.20;;;;;;4982092;28;20227;-81
2022/05/26 10:15:52;;;;;;;8.93;1.92;;;29.40;55.20;;;;;;4973769;28;20831;-78
2022/05/26 10:18:36;;;;;;;2.97;1.50;;;29.50;54.80;;;;;;4983794;28;20623;-78
2022/05/26 10:21:16;;;;;;;3.67;1.67;;;29.50;54.50;;;;;;4978467;28;20189;-77
2022/05/26 10:24:15;;;;;;;2.40;1.30;;;29.60;54.10;;;;;;4983519;28;20197;-79
2022/05/26 10:26:51;;;;;;;4.20;1.80;;;29.70;54.30;;;;;;4979991;28;20569;-85
2022/05/26 10:29:38;;;;;;;4.78;1.50;;;29.70;52.70;;;;;;4984221;28;20215;-76
2022/05/26 10:32:20;;;;;;;3.47;1.50;;;29.70;53.00;;;;;;4983411;28;20717;-80
2022/05/26 10:34:59;;;;;;;2.50;1.60;;;29.70;52.80;;;;;;4981686;28;20207;-78
2022/05/26 10:37:40;;;;;;;5.20;1.63;;;29.80;53.20;;;;;;4983030;28;20606;-82
2022/05/26 10:40:23;;;;;;;2.00;1.40;;;29.80;53.10;;;;;;4982570;28;20200;-77
2022/05/26 10:42:58;;;;;;;6.03;1.65;;;29.90;53.40;;;;;;4984434;28;20185;-81
2022/05/26 10:45:31;;;;;;;4.40;1.38;;;29.90;53.20;;;;;;4984344;28;20247;-77
2022/05/26 10:48:15;;;;;;;2.65;1.20;;;30.00;53.00;;;;;;4989424;28;20221;-77
2022/05/26 10:50:48;;;;;;;7.50;2.00;;;30.10;53.40;;;;;;4983641;28;20192;-79
2022/05/26 10:53:23;;;;;;;2.67;1.38;;;30.10;52.80;;;;;;4979012;28;20230;-79
2022/05/26 10:55:58;;;;;;;4.18;1.30;;;30.10;52.50;;;;;;4987321;28;20211;-78
2022/05/26 10:58:31;;;;;;;6.03;1.20;;;30.20;52.20;;;;;;4989103;28;20193;-82
2022/05/26 11:01:05;;;;;;;2.78;1.60;;;30.30;51.30;;;;;;4988057;28;20193;-79
2022/05/26 11:03:41;;;;;;;5.40;1.23;;;30.30;50.50;;;;;;4987878;28;20199;-79
2022/05/26 11:06:18;;;;;;;2.13;1.20;;;30.40;50.70;;;;;;4989600;28;20197;-76
2022/05/26 11:08:53;;;;;;;6.97;1.40;;;30.40;50.90;;;;;;4983854;28;20192;-79
2022/05/26 11:11:36;;;;;;;3.75;1.48;;;30.50;51.30;;;;;;4997261;28;20855;-76
2022/05/26 11:14:09;;;;;;;2.42;1.10;;;30.50;51.00;;;;;;4977790;28;20205;-79
2022/05/26 11:19:44;;;;;;;3.83;1.13;;;30.50;49.30;;;;;;4950434;28;20213;-78
2022/05/26 11:22:14;;;;;;;3.58;1.20;;;30.50;48.90;;;;;;4984076;28;20200;-79
2022/05/26 11:24:48;;;;;;;4.15;1.05;;;30.50;48.30;;;;;;4966862;28;20208;-79
2022/05/26 11:27:26;;;;;;;9.63;1.10;;;30.60;48.90;;;;;;4980942;28;20201;-79
2022/05/26 11:29:57;;;;;;;1.55;0.82;;;30.70;48.90;;;;;;4987651;28;20608;-83
2022/05/26 11:38:15;;;;;;;7.95;1.10;;;30.80;48.60;;;;;;4977534;28;20189;-79
2022/05/26 11:40:48;;;;;;;1.77;1.02;;;30.90;48.90;;;;;;4987288;28;20208;-79
2022/05/26 11:43:28;;;;;;;5.88;1.10;;;30.90;47.90;;;;;;4987419;28;20207;-81
2022/05/26 11:46:00;;;;;;;3.35;0.65;;;31.00;47.40;;;;;;4980938;28;20204;-81
2022/05/26 11:48:46;;;;;;;0.95;0.80;;;31.00;46.80;;;;;;4993180;28;20244;-80
2022/05/26 11:51:36;;;;;;;1.33;0.63;;;31.10;46.60;;;;;;4983835;28;20636;-76
2022/05/26 11:54:04;;;;;;;4.47;1.00;;;31.10;46.40;;;;;;4981422;28;20256;-78
2022/05/26 11:56:50;;;;;;;2.45;0.77;;;31.20;46.70;;;;;;4992409;28;20200;-78
2022/05/26 11:59:46;;;;;;;1.85;0.70;;;31.30;47.00;;;;;;4987340;28;20208;-78
2022/05/26 12:02:31;;;;;;;4.47;0.90;;;31.30;46.20;;;;;;4991112;28;20191;-80
2022/05/26 12:05:33;;;;;;;3.20;0.82;;;31.40;45.90;;;;;;4983482;28;20682;-79
2022/05/26 12:08:06;;;;;;;6.55;1.17;;;31.50;46.10;;;;;;4986322;28;20196;-85
2022/05/26 12:10:41;;;;;;;3.17;0.90;;;31.50;45.50;;;;;;4994352;28;20196;-85
2022/05/26 12:13:32;;;;;;;5.25;1.30;;;31.60;45.70;;;;;;4986881;28;20224;-79
2022/05/26 12:16:15;;;;;;;2.72;0.77;;;31.60;43.90;;;;;;4982618;28;20197;-79
2022/05/26 12:18:49;;;;;;;2.90;0.60;;;31.70;44.20;;;;;;4986480;28;20232;-83
2022/05/26 12:21:35;;;;;;;2.90;0.80;;;31.70;44.00;;;;;;4985317;28;20212;-79
2022/05/26 12:24:38;;;;;;;5.47;0.90;;;31.90;44.10;;;;;;4998051;28;20271;-77
2022/05/26 12:27:06;;;;;;;2.60;0.85;;;32.00;44.50;;;;;;4949123;28;20215;-80
2022/05/26 12:30:01;;;;;;;2.65;0.82;;;32.10;44.50;;;;;;4991656;28;20205;-78
2022/05/26 12:32:43;;;;;;;5.85;0.80;;;32.30;43.80;;;;;;4984827;28;20790;-81
2022/05/26 12:35:25;;;;;;;3.15;0.70;;;32.40;42.40;;;;;;4985751;28;20193;-86
2022/05/26 12:38:02;;;;;;;4.63;0.63;;;32.40;40.80;;;;;;4991760;28;20195;-83
2022/05/26 12:41:04;;;;;;;3.92;0.90;;;32.60;40.70;;;;;;4993309;28;20640;-78
2022/05/26 12:43:53;;;;;;;4.97;1.05;;;32.70;41.50;;;;;;4938056;28;20686;-78
2022/05/26 12:46:45;;;;;;;1.83;0.63;;;32.90;42.30;;;;;;4988992;28;20201;-78
2022/05/26 12:49:32;;;;;;;1.85;0.85;;;33.00;40.80;;;;;;4983036;28;20219;-78
2022/05/26 12:52:11;;;;;;;3.65;0.70;;;33.10;41.00;;;;;;4983522;28;20300;-81
2022/05/26 12:54:47;;;;;;;2.65;0.70;;;33.10;39.80;;;;;;4984517;28;20213;-78
2022/05/26 12:57:20;;;;;;;3.67;0.70;;;33.10;40.10;;;;;;4985792;28;20225;-77
2022/05/26 12:59:49;;;;;;;1.45;0.63;;;33.10;40.40;;;;;;4980816;28;20204;-77
2022/05/26 13:02:26;;;;;;;1.25;0.50;;;33.20;39.90;;;;;;4977911;28;20201;-74
2022/05/26 13:04:56;;;;;;;3.35;0.60;;;33.30;40.00;;;;;;4978823;28;20820;-77
2022/05/26 13:07:29;;;;;;;3.63;0.88;;;33.40;40.30;;;;;;4984423;28;20216;-79
2022/05/26 13:10:00;;;;;;;1.55;0.80;;;33.50;40.40;;;;;;4984771;28;20666;-82
2022/05/26 13:12:28;;;;;;;1.92;0.70;;;33.60;40.80;;;;;;4982637;28;20210;-79
2022/05/26 13:14:59;;;;;;;4.22;0.77;;;33.90;41.10;;;;;;4979445;28;21453;-79
2022/05/26 13:17:29;;;;;;;2.08;0.80;;;34.20;41.10;;;;;;4982055;28;20987;-80
2022/05/26 13:20:02;;;;;;;3.28;0.70;;;34.60;41.10;;;;;;4985820;28;20855;-80
2022/05/26 13:22:32;;;;;;;3.90;0.98;;;34.70;40.80;;;;;;4972779;28;20205;-79
2022/05/26 13:25:02;;;;;;;5.03;0.73;;;34.80;40.40;;;;;;4974583;28;20212;-79
2022/05/26 13:27:46;;;;;;;3.33;0.88;;;34.70;39.60;;;;;;4975196;28;20201;-80
2022/05/26 13:33:11;;;;;;;1.25;0.75;;;34.40;40.10;;;;;;4978242;28;20204;-78
2022/05/26 13:35:43;;;;;;;4.53;1.05;;;34.20;40.00;;;;;;4985723;28;20259;-76
2022/05/26 13:38:29;;;;;;;1.52;0.68;;;34.20;40.50;;;;;;4981841;28;20193;-78
2022/05/26 13:41:00;;;;;;;4.75;0.90;;;34.10;40.70;;;;;;4979620;28;20586;-77
2022/05/26 13:43:30;;;;;;;3.95;0.70;;;34.10;41.10;;;;;;4983632;28;20220;-78
2022/05/26 13:45:59;;;;;;;2.50;1.05;;;34.00;41.20;;;;;;4985727;28;20307;-76
2022/05/26 13:48:32;;;;;;;4.97;0.77;;;33.90;41.40;;;;;;4982401;28;20235;-78
2022/05/26 13:51:09;;;;;;;5.53;1.48;;;33.80;41.30;;;;;;4983044;28;20205;-81
2022/05/26 13:53:43;;;;;;;2.47;0.85;;;33.70;41.50;;;;;;4982407;28;20201;-78
2022/05/26 13:56:16;;;;;;;2.03;0.90;;;33.70;41.50;;;;;;4985405;28;20212;-77
2022/05/26 13:58:47;;;;;;;5.43;0.90;;;33.60;41.70;;;;;;4983302;28;20200;-79
2022/05/26 14:01:22;;;;;;;1.95;0.73;;;33.60;41.80;;;;;;4983501;28;20193;-78
2022/05/26 14:04:03;;;;;;;0.93;0.80;;;33.50;41.70;;;;;;4983078;28;20209;-78
2022/05/26 14:06:35;;;;;;;8.80;1.20;;;33.40;41.70;;;;;;4984775;28;20288;-78